Time;durP1;ratioP1;P1;durP2;ratioP2;P2;SDS_P1;SDS_P2;PMS_P1;PMS_P2;Temp;Humidity;BMP_temperature;BMP_pressure;BME280_temperature;BME280_humidity;BME280_pressure;Samples;Min_cycle;Max_cycle;Signal;HPM_P1;HPM_P2
2021/08/04 00:01:37;;;;;;;6.35;2.47;;;15.70;99.90;;;;;;4972780;28;20087;-57
2021/08/04 00:04:03;;;;;;;7.88;2.88;;;15.70;99.90;;;;;;4972640;28;20033;-58
2021/08/04 00:06:28;;;;;;;4.80;2.53;;;15.70;99.90;;;;;;4971322;28;20026;-57
2021/08/04 00:08:56;;;;;;;5.78;2.97;;;15.70;99.90;;;;;;4972305;28;20083;-57
2021/08/04 00:11:22;;;;;;;4.25;2.85;;;15.60;99.90;;;;;;4972482;28;20018;-58
2021/08/04 00:13:47;;;;;;;2.67;2.22;;;15.60;99.90;;;;;;4972291;28;20081;-57
2021/08/04 00:16:13;;;;;;;4.75;2.80;;;15.60;99.90;;;;;;4972288;28;20034;-56
2021/08/04 00:18:38;;;;;;;6.13;3.10;;;15.60;99.90;;;;;;4972190;28;20023;-56
2021/08/04 00:21:04;;;;;;;3.83;3.05;;;15.50;99.90;;;;;;4972367;28;20107;-58
2021/08/04 00:23:30;;;;;;;3.58;2.72;;;15.60;99.90;;;;;;4972207;28;20023;-54
2021/08/04 00:25:56;;;;;;;5.43;2.75;;;15.50;99.90;;;;;;4972587;28;20023;-57
2021/08/04 00:28:22;;;;;;;8.00;3.08;;;15.60;99.90;;;;;;4972134;28;20019;-57
2021/08/04 00:30:48;;;;;;;3.78;2.60;;;15.60;99.90;;;;;;4971777;28;20045;-57
2021/08/04 00:33:13;;;;;;;6.28;3.85;;;15.50;99.90;;;;;;4972156;28;20038;-58
2021/08/04 00:35:39;;;;;;;3.20;2.90;;;15.50;99.90;;;;;;4972213;28;20023;-58
2021/08/04 00:38:12;;;;;;;4.85;2.90;;;15.50;99.90;;;;;;4972028;28;20472;-58
2021/08/04 00:40:39;;;;;;;3.95;2.67;;;15.50;99.90;;;;;;4971852;28;20485;-57
2021/08/04 00:43:05;;;;;;;3.10;2.90;;;15.50;99.90;;;;;;4972206;28;20069;-57
2021/08/04 00:45:31;;;;;;;7.22;3.13;;;15.50;99.90;;;;;;4972168;28;20027;-58
2021/08/04 00:47:57;;;;;;;3.58;2.90;;;15.50;99.90;;;;;;4972282;28;20033;-53
2021/08/04 00:50:22;;;;;;;2.95;2.75;;;15.50;99.90;;;;;;4971819;28;20023;-56
2021/08/04 00:52:49;;;;;;;7.75;3.08;;;15.50;99.90;;;;;;4972263;28;20070;-56
2021/08/04 00:55:14;;;;;;;4.88;3.28;;;15.50;99.90;;;;;;4972572;28;20034;-57
2021/08/04 00:57:40;;;;;;;8.23;3.15;;;15.50;99.90;;;;;;4971708;28;20400;-57
2021/08/04 01:00:07;;;;;;;8.43;3.20;;;15.50;99.90;;;;;;4971816;28;20019;-57
2021/08/04 01:02:48;;;;;;;5.32;3.08;;;15.40;99.90;;;;;;4971793;28;20175;-56
2021/08/04 01:05:22;;;;;;;11.32;3.60;;;15.50;99.90;;;;;;4971672;28;20105;-59
2021/08/04 01:08:06;;;;;;;6.60;3.53;;;15.50;99.90;;;;;;4971647;28;20031;-58
2021/08/04 01:10:40;;;;;;;3.38;2.95;;;15.50;99.90;;;;;;4971381;28;20026;-57
2021/08/04 01:13:26;;;;;;;3.75;3.45;;;15.50;99.90;;;;;;4971513;28;20042;-58
2021/08/04 01:16:19;;;;;;;7.07;3.50;;;15.50;99.90;;;;;;4970414;28;20098;-57
2021/08/04 01:18:53;;;;;;;5.13;3.55;;;15.40;99.90;;;;;;4971585;28;20101;-57
2021/08/04 01:21:26;;;;;;;5.55;3.22;;;15.40;99.90;;;;;;4971786;28;20373;-57
2021/08/04 01:24:11;;;;;;;5.47;3.83;;;15.30;99.90;;;;;;4970662;28;20030;-56
2021/08/04 01:26:42;;;;;;;5.63;3.30;;;15.30;99.90;;;;;;4971506;28;20062;-49
2021/08/04 01:29:12;;;;;;;12.63;4.13;;;15.30;99.90;;;;;;4971388;28;20031;-51
2021/08/04 01:31:38;;;;;;;5.22;3.03;;;15.30;99.90;;;;;;4969973;28;20126;-50
2021/08/04 01:34:05;;;;;;;7.30;3.58;;;15.30;99.90;;;;;;4971530;28;20026;-51
2021/08/04 01:36:32;;;;;;;8.02;3.78;;;15.30;99.90;;;;;;4971370;28;20027;-50
2021/08/04 01:39:00;;;;;;;7.22;4.07;;;15.30;99.90;;;;;;4971256;28;20031;-50
2021/08/04 01:41:26;;;;;;;6.25;3.35;;;15.30;99.90;;;;;;4971258;28;20385;-51
2021/08/04 01:43:53;;;;;;;8.50;3.67;;;15.40;99.90;;;;;;4971393;28;20413;-51
2021/08/04 01:46:20;;;;;;;6.35;2.95;;;15.40;99.90;;;;;;4971670;28;20388;-52
2021/08/04 01:48:47;;;;;;;5.97;3.08;;;15.40;99.90;;;;;;4970852;28;20023;-51
2021/08/04 01:51:13;;;;;;;4.00;3.30;;;15.40;99.90;;;;;;4971343;28;20400;-52
2021/08/04 01:53:40;;;;;;;6.50;2.83;;;15.50;99.90;;;;;;4971142;28;20114;-50
2021/08/04 01:56:07;;;;;;;6.72;2.75;;;15.50;99.90;;;;;;4971207;28;20094;-49
2021/08/04 01:58:33;;;;;;;5.15;3.25;;;15.50;99.90;;;;;;4971438;28;20105;-52
2021/08/04 02:00:58;;;;;;;5.15;3.92;;;15.50;99.90;;;;;;4971089;28;20019;-53
2021/08/04 02:03:25;;;;;;;8.45;4.15;;;15.60;99.90;;;;;;4971258;28;20030;-53
2021/08/04 02:05:52;;;;;;;7.00;3.80;;;15.60;99.90;;;;;;4971300;28;20038;-52
2021/08/04 02:08:17;;;;;;;8.88;3.40;;;15.60;99.90;;;;;;4971179;28;20031;-52
2021/08/04 02:11:20;;;;;;;3.45;3.15;;;15.60;99.90;;;;;;4974384;28;20030;-51
2021/08/04 02:13:59;;;;;;;3.00;2.78;;;15.60;99.90;;;;;;4974861;28;20027;-49
2021/08/04 02:16:42;;;;;;;7.65;3.15;;;15.50;99.90;;;;;;4974482;28;20027;-53
2021/08/04 02:19:31;;;;;;;5.70;3.38;;;15.50;99.90;;;;;;4974479;28;20023;-54
2021/08/04 02:22:28;;;;;;;3.83;3.53;;;15.50;99.90;;;;;;4974701;28;20027;-51
2021/08/04 02:25:05;;;;;;;4.78;3.40;;;15.50;99.90;;;;;;4959414;28;20035;-52
2021/08/04 02:27:33;;;;;;;4.40;3.40;;;15.50;99.90;;;;;;4974411;28;20118;-56
2021/08/04 02:30:00;;;;;;;4.93;2.65;;;15.50;99.90;;;;;;4972712;28;20044;-53
2021/08/04 02:32:26;;;;;;;4.57;2.97;;;15.50;99.90;;;;;;4974175;28;20066;-54
2021/08/04 02:34:52;;;;;;;3.78;3.28;;;15.50;99.90;;;;;;4974305;28;20398;-50
2021/08/04 02:37:18;;;;;;;5.93;3.80;;;15.50;99.90;;;;;;4974120;28;20042;-55
2021/08/04 02:39:43;;;;;;;3.85;2.92;;;15.50;99.90;;;;;;4973983;28;20547;-53
2021/08/04 02:42:09;;;;;;;5.25;3.30;;;15.50;99.90;;;;;;4974075;28;20031;-52
2021/08/04 02:44:35;;;;;;;4.03;3.63;;;15.50;99.90;;;;;;4974107;28;20027;-54
2021/08/04 02:47:01;;;;;;;4.10;3.08;;;15.50;99.90;;;;;;4973863;28;20037;-53
2021/08/04 02:49:26;;;;;;;3.88;2.92;;;15.50;99.90;;;;;;4973412;28;20106;-51
2021/08/04 02:51:53;;;;;;;4.50;3.03;;;15.50;99.90;;;;;;4973907;28;20070;-49
2021/08/04 02:54:19;;;;;;;4.03;2.42;;;15.50;99.90;;;;;;4973927;28;20094;-53
2021/08/04 02:56:46;;;;;;;6.50;3.22;;;15.50;99.90;;;;;;4973779;28;20031;-54
2021/08/04 02:59:11;;;;;;;4.70;3.05;;;15.60;99.90;;;;;;4973487;28;20062;-56
2021/08/04 03:01:37;;;;;;;3.40;3.10;;;15.60;99.90;;;;;;4973648;28;20054;-54
2021/08/04 03:04:02;;;;;;;4.03;3.00;;;15.60;99.90;;;;;;4973841;28;20023;-53
2021/08/04 03:06:28;;;;;;;8.88;3.55;;;15.60;99.90;;;;;;4973691;28;20033;-50
2021/08/04 03:08:53;;;;;;;5.78;3.20;;;15.60;99.90;;;;;;4973286;28;20034;-52
2021/08/04 03:11:19;;;;;;;12.00;3.60;;;15.60;99.90;;;;;;4973648;28;20042;-53
2021/08/04 03:13:44;;;;;;;5.43;3.72;;;15.60;99.90;;;;;;4973543;28;20208;-51
2021/08/04 03:16:10;;;;;;;6.07;4.75;;;15.60;99.90;;;;;;4973511;28;20482;-53
2021/08/04 03:18:35;;;;;;;6.22;3.65;;;15.60;99.90;;;;;;4973327;28;20034;-54
2021/08/04 03:21:01;;;;;;;3.55;3.25;;;15.60;99.90;;;;;;4973337;28;20022;-52
2021/08/04 03:23:27;;;;;;;4.05;3.72;;;15.60;99.90;;;;;;4974525;28;20425;-51
2021/08/04 03:25:52;;;;;;;4.47;3.75;;;15.60;99.90;;;;;;4973486;28;20037;-51
2021/08/04 03:28:18;;;;;;;3.88;3.58;;;15.70;99.90;;;;;;4975485;28;20404;-55
2021/08/04 03:30:43;;;;;;;3.17;2.88;;;15.60;99.90;;;;;;4976215;28;20518;-53
2021/08/04 03:33:09;;;;;;;3.50;3.20;;;15.60;99.90;;;;;;4976715;28;20044;-54
2021/08/04 03:35:35;;;;;;;3.67;3.38;;;15.60;99.90;;;;;;4976142;28;20467;-55
2021/08/04 03:38:00;;;;;;;4.72;3.53;;;15.70;99.90;;;;;;4976078;28;20488;-52
2021/08/04 03:40:26;;;;;;;8.30;4.07;;;15.70;99.90;;;;;;4975634;28;20030;-54
2021/08/04 03:42:52;;;;;;;4.65;3.55;;;15.70;99.90;;;;;;4973655;28;20110;-50
2021/08/04 03:45:17;;;;;;;4.25;3.72;;;15.70;99.90;;;;;;4973117;28;20026;-50
2021/08/04 03:47:43;;;;;;;5.28;3.97;;;15.60;99.90;;;;;;4971714;28;20038;-51
2021/08/04 03:50:10;;;;;;;6.55;4.20;;;15.60;99.90;;;;;;4972733;28;20042;-52
2021/08/04 03:52:36;;;;;;;4.70;3.45;;;15.50;99.90;;;;;;4972744;28;20033;-50
2021/08/04 03:55:01;;;;;;;6.85;3.95;;;15.50;99.90;;;;;;4973514;28;20070;-54
2021/08/04 03:57:27;;;;;;;3.90;3.53;;;15.50;99.90;;;;;;4972881;28;20454;-54
2021/08/04 03:59:52;;;;;;;9.63;4.00;;;15.50;99.90;;;;;;4972549;28;20058;-54
2021/08/04 04:02:18;;;;;;;6.75;4.07;;;15.50;99.90;;;;;;4972798;28;20034;-50
2021/08/04 04:04:43;;;;;;;12.75;4.38;;;15.50;99.90;;;;;;4974529;28;20074;-56
2021/08/04 04:07:09;;;;;;;5.53;3.58;;;15.60;99.90;;;;;;4977896;28;20037;-56
2021/08/04 04:09:36;;;;;;;4.65;3.90;;;15.60;99.90;;;;;;4976150;28;20070;-58
2021/08/04 04:12:02;;;;;;;11.65;4.40;;;15.70;99.90;;;;;;4975736;28;20023;-56
2021/08/04 04:14:27;;;;;;;8.07;4.18;;;15.70;99.90;;;;;;4974521;28;20058;-55
2021/08/04 04:16:53;;;;;;;4.50;3.85;;;15.70;99.90;;;;;;4976017;28;20094;-58
2021/08/04 04:19:18;;;;;;;4.30;3.90;;;15.70;99.90;;;;;;4972806;28;20530;-54
2021/08/04 04:21:44;;;;;;;6.60;4.25;;;15.70;99.90;;;;;;4971153;28;20066;-52
2021/08/04 04:24:09;;;;;;;4.72;3.67;;;15.80;99.90;;;;;;4972382;28;20034;-56
2021/08/04 04:26:35;;;;;;;4.35;3.95;;;15.80;99.90;;;;;;4987229;28;20121;-59
2021/08/04 04:29:00;;;;;;;7.13;4.40;;;15.80;99.90;;;;;;4970798;28;20505;-54
2021/08/04 04:31:26;;;;;;;5.25;3.72;;;15.70;99.90;;;;;;4972171;28;20027;-54
2021/08/04 04:33:52;;;;;;;4.63;3.22;;;15.80;99.90;;;;;;4972588;28;20026;-53
2021/08/04 04:36:17;;;;;;;7.68;4.35;;;15.80;99.90;;;;;;4971944;28;20050;-57
2021/08/04 04:38:43;;;;;;;9.52;4.50;;;15.80;99.90;;;;;;4971905;28;20041;-55
2021/08/04 04:41:08;;;;;;;11.00;4.32;;;15.80;99.90;;;;;;4972167;28;20023;-52
2021/08/04 04:43:36;;;;;;;7.22;4.45;;;15.80;99.90;;;;;;4971143;28;20036;-54
2021/08/04 04:46:02;;;;;;;5.13;4.65;;;15.80;99.90;;;;;;4972162;28;20031;-54
2021/08/04 04:48:27;;;;;;;6.60;4.00;;;15.80;99.90;;;;;;4971506;28;20031;-56
2021/08/04 04:50:53;;;;;;;8.18;4.32;;;15.80;99.90;;;;;;4971757;28;20030;-55
2021/08/04 04:53:18;;;;;;;7.22;4.63;;;15.70;99.90;;;;;;4972042;28;20027;-55
2021/08/04 04:55:44;;;;;;;6.85;5.18;;;15.70;99.90;;;;;;4971978;28;20018;-54
2021/08/04 04:58:09;;;;;;;5.25;4.07;;;15.70;99.90;;;;;;4971863;28;20381;-53
2021/08/04 05:00:35;;;;;;;5.45;4.75;;;15.70;99.90;;;;;;4971577;28;20154;-51
2021/08/04 05:03:00;;;;;;;7.55;5.72;;;15.70;99.90;;;;;;4971761;28;20389;-55
2021/08/04 05:05:26;;;;;;;6.03;4.55;;;15.70;99.90;;;;;;4971714;28;20366;-56
2021/08/04 05:07:51;;;;;;;8.85;5.00;;;15.80;99.90;;;;;;4971973;28;20035;-56
2021/08/04 05:10:17;;;;;;;6.00;4.32;;;15.70;99.90;;;;;;4970460;28;20023;-52
2021/08/04 05:12:42;;;;;;;6.53;4.97;;;15.80;99.90;;;;;;4971814;28;20110;-52
2021/08/04 05:15:08;;;;;;;6.28;5.22;;;15.70;99.90;;;;;;4971867;28;20121;-56
2021/08/04 05:17:34;;;;;;;8.07;4.88;;;15.70;99.90;;;;;;4971671;28;20062;-54
2021/08/04 05:19:59;;;;;;;4.57;4.15;;;15.70;99.90;;;;;;4970162;28;20119;-55
2021/08/04 05:22:25;;;;;;;8.32;5.32;;;15.80;99.90;;;;;;4971519;28;20031;-54
2021/08/04 05:24:50;;;;;;;5.38;4.80;;;15.80;99.90;;;;;;4971862;28;20023;-52
2021/08/04 05:27:16;;;;;;;6.18;5.10;;;15.90;99.90;;;;;;4971656;28;20091;-54
2021/08/04 05:29:41;;;;;;;9.23;5.18;;;15.90;99.90;;;;;;4971373;28;20050;-53
2021/08/04 05:32:07;;;;;;;11.60;6.07;;;16.00;99.90;;;;;;4971454;28;20034;-57
2021/08/04 05:34:33;;;;;;;10.05;5.20;;;16.00;99.90;;;;;;4970144;28;20577;-52
2021/08/04 05:36:58;;;;;;;10.82;5.47;;;16.00;99.90;;;;;;4971535;28;20497;-53
2021/08/04 05:39:24;;;;;;;6.50;5.10;;;16.00;99.90;;;;;;4971257;28;20027;-55
2021/08/04 05:41:49;;;;;;;14.88;6.30;;;16.00;99.90;;;;;;4971462;28;20030;-53
2021/08/04 05:44:15;;;;;;;7.13;5.22;;;16.00;99.90;;;;;;4972895;28;20459;-55
2021/08/04 05:46:40;;;;;;;6.43;5.47;;;16.00;99.90;;;;;;4973853;28;20030;-52
2021/08/04 05:49:06;;;;;;;9.38;5.15;;;16.00;99.90;;;;;;4974591;28;20022;-52
2021/08/04 05:51:31;;;;;;;8.98;6.03;;;16.10;99.90;;;;;;4974868;28;20031;-51
2021/08/04 05:53:57;;;;;;;10.55;6.00;;;16.10;99.90;;;;;;4974983;28;20106;-48
2021/08/04 05:56:22;;;;;;;8.50;5.28;;;16.20;99.90;;;;;;4977659;28;20022;-49
2021/08/04 05:58:48;;;;;;;10.02;6.07;;;16.30;99.90;;;;;;4979514;28;20110;-54
2021/08/04 06:01:13;;;;;;;8.80;5.53;;;16.40;99.90;;;;;;4974872;28;20049;-51
2021/08/04 06:03:39;;;;;;;7.47;5.53;;;16.40;99.90;;;;;;4982770;28;20062;-49
2021/08/04 06:06:04;;;;;;;6.57;5.32;;;16.40;99.90;;;;;;4986804;28;20488;-50
2021/08/04 06:08:30;;;;;;;9.05;5.55;;;16.50;99.90;;;;;;4977422;28;20037;-49
2021/08/04 06:10:57;;;;;;;6.95;5.03;;;16.60;99.90;;;;;;4983615;28;20030;-49
2021/08/04 06:13:22;;;;;;;10.68;6.03;;;16.60;99.90;;;;;;4979333;28;20023;-49
2021/08/04 06:15:53;;;;;;;11.30;5.32;;;16.60;99.90;;;;;;4992449;28;20403;-52
2021/08/04 06:18:19;;;;;;;6.63;5.38;;;16.60;99.90;;;;;;4978785;28;20034;-48
2021/08/04 06:20:45;;;;;;;10.02;5.93;;;16.60;99.90;;;;;;4986614;28;20026;-50
2021/08/04 06:23:10;;;;;;;7.00;5.97;;;16.50;99.90;;;;;;4982774;28;20026;-48
2021/08/04 06:25:36;;;;;;;12.68;5.63;;;16.50;99.90;;;;;;4988134;28;20424;-48
2021/08/04 06:28:02;;;;;;;10.40;5.78;;;16.50;99.90;;;;;;4988889;28;20037;-48
2021/08/04 06:30:27;;;;;;;7.85;6.22;;;16.60;99.90;;;;;;4978769;28;20038;-48
2021/08/04 06:32:53;;;;;;;7.88;5.90;;;16.60;99.90;;;;;;4981339;28;20484;-54
2021/08/04 06:35:18;;;;;;;7.65;5.97;;;16.60;99.90;;;;;;4966153;28;20026;-53
2021/08/04 06:37:44;;;;;;;6.53;5.47;;;16.70;99.90;;;;;;4994003;28;20507;-48
2021/08/04 06:40:10;;;;;;;9.18;6.22;;;16.70;99.90;;;;;;4976328;28;20109;-48
2021/08/04 06:42:35;;;;;;;6.60;6.00;;;16.70;99.90;;;;;;4976551;28;20018;-48
2021/08/04 06:45:01;;;;;;;8.18;6.88;;;16.70;99.90;;;;;;4993772;28;20081;-53
2021/08/04 06:47:27;;;;;;;6.07;5.57;;;16.70;99.90;;;;;;4993827;28;20030;-49
2021/08/04 06:49:52;;;;;;;6.07;5.43;;;16.80;99.90;;;;;;4993770;28;20040;-48
2021/08/04 06:52:18;;;;;;;5.85;5.35;;;16.80;99.90;;;;;;4993731;28;20030;-49
2021/08/04 06:54:43;;;;;;;9.75;5.40;;;16.90;99.90;;;;;;4993373;28;20030;-53
2021/08/04 06:57:09;;;;;;;7.32;6.00;;;16.90;99.90;;;;;;4993529;28;20472;-48
2021/08/04 06:59:34;;;;;;;9.15;5.65;;;16.90;99.90;;;;;;4993607;28;20033;-48
2021/08/04 07:02:01;;;;;;;8.15;5.88;;;16.90;99.90;;;;;;4993568;28;20396;-51
2021/08/04 07:04:29;;;;;;;10.23;6.03;;;17.00;99.90;;;;;;4993604;28;20019;-53
2021/08/04 07:06:56;;;;;;;7.82;6.15;;;16.90;99.90;;;;;;4993601;28;20022;-50
2021/08/04 07:09:22;;;;;;;6.20;5.60;;;16.80;99.90;;;;;;4993080;28;20088;-52
2021/08/04 07:11:47;;;;;;;6.75;6.03;;;16.80;99.90;;;;;;4993266;28;20121;-53
2021/08/04 07:14:13;;;;;;;7.43;6.57;;;16.80;99.90;;;;;;4975912;28;20069;-50
2021/08/04 07:16:38;;;;;;;10.00;6.03;;;16.80;99.90;;;;;;4993025;28;20037;-49
2021/08/04 07:19:04;;;;;;;8.55;6.15;;;16.80;99.90;;;;;;4993064;28;20050;-52
2021/08/04 07:21:30;;;;;;;6.30;5.25;;;16.90;99.90;;;;;;4993158;28;20044;-53
2021/08/04 07:24:01;;;;;;;8.70;6.78;;;17.00;99.90;;;;;;4993845;28;20081;-51
2021/08/04 07:26:27;;;;;;;6.97;6.22;;;17.00;99.90;;;;;;4993142;28;20038;-50
2021/08/04 07:28:52;;;;;;;6.80;6.10;;;17.00;99.90;;;;;;4991822;28;20400;-50
2021/08/04 07:31:18;;;;;;;6.75;5.68;;;17.00;99.90;;;;;;4993211;28;20027;-52
2021/08/04 07:33:43;;;;;;;6.93;5.65;;;17.00;99.90;;;;;;4993300;28;20073;-48
2021/08/04 07:36:12;;;;;;;6.93;5.65;;;17.00;99.90;;;;;;4992960;28;20030;-50
2021/08/04 07:38:37;;;;;;;6.45;5.85;;;17.00;99.90;;;;;;4992870;28;20484;-49
2021/08/04 07:41:04;;;;;;;7.10;6.40;;;17.00;99.90;;;;;;4993181;28;20037;-51
2021/08/04 07:43:30;;;;;;;8.38;5.30;;;17.10;99.90;;;;;;4992532;28;20029;-53
2021/08/04 07:45:56;;;;;;;8.30;6.70;;;17.20;99.90;;;;;;4992934;28;20023;-50
2021/08/04 07:48:21;;;;;;;7.78;6.80;;;17.30;99.90;;;;;;4992772;28;20057;-49
2021/08/04 07:50:47;;;;;;;6.78;6.15;;;17.30;99.90;;;;;;4992456;28;20499;-49
2021/08/04 07:53:12;;;;;;;6.70;5.53;;;17.40;99.90;;;;;;4992400;28;20031;-51
2021/08/04 07:55:38;;;;;;;11.00;5.55;;;17.40;99.90;;;;;;4992378;28;20026;-48
2021/08/04 07:58:03;;;;;;;7.35;5.90;;;17.50;99.90;;;;;;4993125;28;20439;-50
2021/08/04 08:00:29;;;;;;;11.02;6.20;;;17.60;99.90;;;;;;4992361;28;20109;-51
2021/08/04 08:02:54;;;;;;;12.88;6.80;;;17.80;99.90;;;;;;4992322;28;20030;-52
2021/08/04 08:05:20;;;;;;;7.43;5.80;;;17.90;99.90;;;;;;4992654;28;20043;-49
2021/08/04 08:07:48;;;;;;;6.15;5.57;;;17.90;99.90;;;;;;4991783;28;20522;-50
2021/08/04 08:10:14;;;;;;;9.93;6.45;;;18.00;99.90;;;;;;4992260;28;20100;-52
2021/08/04 08:12:40;;;;;;;10.65;5.72;;;18.40;99.90;;;;;;4992332;28;20038;-49
2021/08/04 08:15:06;;;;;;;7.07;5.20;;;18.90;99.90;;;;;;4989587;28;20399;-48
2021/08/04 08:17:32;;;;;;;6.25;5.63;;;19.10;99.90;;;;;;4965558;28;20030;-55
2021/08/04 08:19:57;;;;;;;7.03;6.25;;;19.40;99.90;;;;;;4978643;28;20045;-50
2021/08/04 08:22:23;;;;;;;7.35;5.25;;;19.50;99.90;;;;;;4976146;28;20473;-51
2021/08/04 08:24:48;;;;;;;7.30;4.80;;;19.60;99.90;;;;;;4983027;28;20043;-54
2021/08/04 08:27:14;;;;;;;6.47;4.28;;;19.70;99.90;;;;;;4985773;28;20081;-53
2021/08/04 08:29:40;;;;;;;5.90;5.30;;;19.60;99.90;;;;;;4976971;28;20058;-52
2021/08/04 08:32:06;;;;;;;7.95;5.45;;;19.50;99.90;;;;;;4975436;28;20038;-55
2021/08/04 08:34:31;;;;;;;6.60;4.90;;;19.50;99.90;;;;;;4973253;28;20050;-53
2021/08/04 08:36:57;;;;;;;7.18;5.25;;;19.40;99.90;;;;;;4977453;28;20031;-54
2021/08/04 08:39:22;;;;;;;8.25;5.22;;;19.30;99.90;;;;;;4991373;28;20392;-53
2021/08/04 08:41:49;;;;;;;5.25;4.85;;;19.10;99.90;;;;;;4991684;28;20029;-48
2021/08/04 08:44:14;;;;;;;7.00;5.70;;;19.00;99.90;;;;;;4988027;28;20023;-49
2021/08/04 08:46:41;;;;;;;5.35;4.95;;;18.90;99.90;;;;;;4967395;28;20102;-55
2021/08/04 08:49:07;;;;;;;6.13;5.43;;;18.80;99.90;;;;;;4979319;28;20034;-53
2021/08/04 08:51:34;;;;;;;6.28;5.10;;;18.70;99.90;;;;;;4971948;28;20034;-52
2021/08/04 08:54:00;;;;;;;8.60;5.90;;;18.60;99.90;;;;;;4987611;28;20125;-53
2021/08/04 08:56:25;;;;;;;6.40;5.78;;;18.50;99.90;;;;;;4980043;28;20119;-56
2021/08/04 08:58:54;;;;;;;6.85;6.25;;;18.40;99.90;;;;;;4974697;28;20080;-55
2021/08/04 09:01:31;;;;;;;7.15;6.45;;;18.20;99.90;;;;;;4988761;28;20027;-57
2021/08/04 09:04:00;;;;;;;6.40;5.80;;;18.00;99.90;;;;;;4972949;28;20023;-49
2021/08/04 09:06:47;;;;;;;5.85;5.25;;;17.90;99.90;;;;;;4969064;28;20134;-49
2021/08/04 09:09:19;;;;;;;8.45;5.60;;;17.80;99.90;;;;;;4974004;28;20485;-46
2021/08/04 09:11:46;;;;;;;9.63;7.63;;;17.80;99.90;;;;;;4970819;28;20037;-48
2021/08/04 09:14:12;;;;;;;8.15;7.35;;;17.90;99.90;;;;;;4970568;28;20023;-50
2021/08/04 09:16:39;;;;;;;10.25;7.00;;;17.90;99.90;;;;;;4970450;28;20441;-47
2021/08/04 09:19:18;;;;;;;12.90;8.50;;;17.80;99.90;;;;;;4973680;28;20054;-47
2021/08/04 09:21:43;;;;;;;9.52;8.00;;;17.80;99.90;;;;;;4976397;28;20025;-49
2021/08/04 09:24:09;;;;;;;7.95;7.25;;;18.00;99.90;;;;;;4984412;28;20026;-49
2021/08/04 09:26:39;;;;;;;7.47;6.35;;;18.00;99.90;;;;;;4983831;28;20436;-50
2021/08/04 09:29:12;;;;;;;7.80;7.10;;;18.10;99.90;;;;;;4974037;28;20027;-52
2021/08/04 09:31:40;;;;;;;6.57;5.90;;;18.40;99.90;;;;;;4973818;28;20023;-51
2021/08/04 09:34:30;;;;;;;7.15;4.63;;;18.90;99.90;;;;;;4977849;28;20035;-52
2021/08/04 09:37:09;;;;;;;6.18;5.47;;;19.40;99.90;;;;;;4974724;28;20027;-51
2021/08/04 09:39:38;;;;;;;7.88;5.50;;;19.50;99.90;;;;;;4973492;28;20049;-48
2021/08/04 09:42:05;;;;;;;7.40;5.53;;;19.50;99.90;;;;;;4974046;28;20548;-49
2021/08/04 09:44:31;;;;;;;5.75;5.35;;;19.40;99.90;;;;;;4973802;28;20102;-47
2021/08/04 09:47:13;;;;;;;6.82;5.88;;;19.40;99.90;;;;;;4973724;28;20058;-48
2021/08/04 09:49:41;;;;;;;6.22;5.63;;;19.20;99.90;;;;;;4973620;28;20031;-52
2021/08/04 09:52:11;;;;;;;5.97;5.38;;;19.10;99.90;;;;;;4973595;28;20027;-54
2021/08/04 09:54:39;;;;;;;7.45;6.82;;;18.90;99.90;;;;;;4972239;28;20073;-49
2021/08/04 09:57:05;;;;;;;15.65;11.95;;;18.80;99.90;;;;;;4973834;28;20524;-50
2021/08/04 09:59:31;;;;;;;7.47;6.78;;;18.70;99.90;;;;;;4973278;28;20106;-52
2021/08/04 10:01:59;;;;;;;7.30;6.40;;;18.70;99.90;;;;;;4973652;28;20533;-53
2021/08/04 10:04:24;;;;;;;7.82;6.38;;;18.60;99.90;;;;;;4973415;28;20093;-50
2021/08/04 10:07:02;;;;;;;9.15;7.15;;;18.40;99.90;;;;;;4973353;28;20039;-48
2021/08/04 10:09:27;;;;;;;9.15;7.63;;;18.40;99.90;;;;;;4971783;28;20058;-48
2021/08/04 10:11:54;;;;;;;8.20;7.40;;;18.40;99.90;;;;;;4982798;28;20504;-49
2021/08/04 10:14:21;;;;;;;14.05;7.85;;;18.30;99.90;;;;;;4992131;28;20554;-49
2021/08/04 10:16:49;;;;;;;8.73;7.95;;;18.20;99.90;;;;;;4973092;28;20051;-53
2021/08/04 10:19:16;;;;;;;8.95;8.05;;;18.10;99.90;;;;;;4972356;28;20045;-49
2021/08/04 10:21:42;;;;;;;8.88;8.07;;;18.00;99.90;;;;;;4981622;28;20037;-55
2021/08/04 10:24:11;;;;;;;11.98;9.40;;;17.90;99.90;;;;;;4968961;28;20090;-50
2021/08/04 10:26:37;;;;;;;10.10;9.15;;;17.80;99.90;;;;;;4977262;28;20046;-46
2021/08/04 10:29:05;;;;;;;8.63;7.82;;;17.70;99.90;;;;;;4978198;28;20427;-51
2021/08/04 10:31:32;;;;;;;8.82;7.38;;;17.70;99.90;;;;;;4976319;28;20022;-49
2021/08/04 10:33:58;;;;;;;7.15;6.47;;;17.60;99.90;;;;;;4992683;28;20403;-52
2021/08/04 10:36:30;;;;;;;8.18;7.40;;;17.50;99.90;;;;;;4990995;28;20043;-56
2021/08/04 10:39:04;;;;;;;7.38;6.68;;;17.50;99.90;;;;;;4977926;28;20034;-63
2021/08/04 10:41:30;;;;;;;7.45;6.75;;;17.50;99.90;;;;;;4973567;28;20520;-60
2021/08/04 10:44:01;;;;;;;6.70;6.10;;;17.50;99.90;;;;;;4986001;28;20023;-61
2021/08/04 10:46:29;;;;;;;7.38;5.93;;;17.60;99.90;;;;;;4982113;28;20647;-59
2021/08/04 10:48:58;;;;;;;6.95;5.90;;;17.60;99.90;;;;;;4988863;28;20029;-63
2021/08/04 10:51:25;;;;;;;6.05;5.45;;;17.50;99.90;;;;;;4973059;28;20509;-61
2021/08/04 10:54:13;;;;;;;7.03;6.53;;;17.50;99.90;;;;;;4973435;28;20034;-63
2021/08/04 10:56:41;;;;;;;8.43;7.10;;;17.50;99.90;;;;;;4967996;28;20042;-60
2021/08/04 10:59:12;;;;;;;19.80;15.82;;;17.60;99.90;;;;;;4955731;28;20062;-54
2021/08/04 11:01:42;;;;;;;26.23;16.58;;;17.60;99.90;;;;;;4976550;28;20023;-53
2021/08/04 11:04:10;;;;;;;7.28;6.57;;;17.70;99.90;;;;;;4983023;28;20120;-48
2021/08/04 11:07:07;;;;;;;6.72;6.22;;;17.80;99.90;;;;;;4978061;28;20760;-54
2021/08/04 11:09:38;;;;;;;7.47;6.88;;;17.90;99.90;;;;;;4989419;28;20125;-54
2021/08/04 11:12:11;;;;;;;6.22;5.68;;;18.10;99.90;;;;;;4992670;28;20049;-51
2021/08/04 11:14:50;;;;;;;5.90;5.40;;;18.30;99.90;;;;;;4974935;28;20027;-49
2021/08/04 11:17:21;;;;;;;6.28;4.72;;;18.40;99.90;;;;;;4973501;28;20210;-49
2021/08/04 11:20:03;;;;;;;5.45;4.95;;;18.60;99.90;;;;;;4973604;28;20556;-50
2021/08/04 11:22:34;;;;;;;4.07;3.78;;;18.80;99.90;;;;;;4973141;28;20029;-55
2021/08/04 11:25:03;;;;;;;7.35;4.20;;;18.90;99.90;;;;;;4968585;28;20407;-51
2021/08/04 11:27:31;;;;;;;4.35;3.80;;;19.00;99.90;;;;;;4974005;28;20042;-55
2021/08/04 11:29:58;;;;;;;4.50;4.10;;;19.10;99.90;;;;;;4953488;29;20548;-54
2021/08/04 11:32:29;;;;;;;6.20;5.53;;;19.20;99.90;;;;;;4954050;28;20090;-55
2021/08/04 11:34:56;;;;;;;5.13;4.60;;;19.40;99.90;;;;;;4953842;29;20397;-55
2021/08/04 11:37:23;;;;;;;7.10;4.88;;;19.40;99.90;;;;;;4954034;29;20032;-50
2021/08/04 11:40:02;;;;;;;4.60;3.42;;;19.40;99.90;;;;;;4973761;28;20085;-48
2021/08/04 11:42:30;;;;;;;4.07;3.78;;;19.40;99.90;;;;;;4984707;28;20034;-49
2021/08/04 11:45:07;;;;;;;7.10;3.42;;;19.40;99.90;;;;;;4992705;28;20033;-54
2021/08/04 11:47:32;;;;;;;4.22;3.83;;;19.40;99.90;;;;;;4980335;28;20364;-49
2021/08/04 11:50:04;;;;;;;4.18;3.85;;;19.40;99.90;;;;;;4973266;28;20113;-50
2021/08/04 11:52:31;;;;;;;3.53;3.22;;;19.50;99.90;;;;;;4974132;28;20122;-48
2021/08/04 11:55:10;;;;;;;4.60;4.20;;;19.50;99.90;;;;;;4972785;28;20062;-51
2021/08/04 11:57:46;;;;;;;4.25;3.70;;;19.50;99.90;;;;;;4954087;29;20035;-53
2021/08/04 12:00:17;;;;;;;10.13;8.57;;;19.60;99.90;;;;;;4972144;28;20105;-52
2021/08/04 12:02:44;;;;;;;6.93;5.85;;;19.50;99.90;;;;;;4973047;28;20236;-55
2021/08/04 12:05:11;;;;;;;5.20;4.75;;;19.60;99.90;;;;;;4974203;28;20030;-51
2021/08/04 12:07:38;;;;;;;5.30;4.85;;;19.60;99.90;;;;;;4973621;28;20038;-56
2021/08/04 12:10:12;;;;;;;10.70;5.20;;;19.60;99.90;;;;;;4974683;28;20401;-57
2021/08/04 12:12:40;;;;;;;4.60;4.20;;;19.70;99.90;;;;;;4991550;28;20499;-51
2021/08/04 12:15:22;;;;;;;5.25;4.80;;;19.70;99.90;;;;;;4991456;28;20309;-55
2021/08/04 12:17:50;;;;;;;5.82;5.18;;;19.70;99.90;;;;;;4989058;28;20018;-53
2021/08/04 12:20:24;;;;;;;4.85;4.53;;;19.80;99.90;;;;;;4974436;28;20026;-52
2021/08/04 12:23:23;;;;;;;5.57;5.18;;;19.70;99.90;;;;;;4972883;28;20031;-50
2021/08/04 12:25:58;;;;;;;5.63;5.15;;;19.80;99.90;;;;;;4930773;29;20067;-51
2021/08/04 12:28:29;;;;;;;5.10;4.60;;;19.80;99.90;;;;;;4966996;28;20019;-55
2021/08/04 12:30:55;;;;;;;7.22;4.85;;;19.90;99.90;;;;;;4986564;28;20534;-54
2021/08/04 12:33:22;;;;;;;6.20;5.28;;;19.90;99.90;;;;;;4991500;28;20046;-50
2021/08/04 12:36:10;;;;;;;8.15;5.25;;;19.90;99.90;;;;;;4984482;28;20031;-57
2021/08/04 12:38:39;;;;;;;5.10;4.65;;;19.90;99.90;;;;;;4971386;28;20438;-53
2021/08/04 12:41:07;;;;;;;5.13;4.72;;;20.00;99.90;;;;;;4975659;28;20019;-56
2021/08/04 12:43:36;;;;;;;5.40;4.90;;;20.00;99.90;;;;;;4971579;28;20089;-61
2021/08/04 12:46:03;;;;;;;4.25;3.95;;;20.10;99.90;;;;;;4984584;28;20110;-57
2021/08/04 12:48:46;;;;;;;4.30;4.00;;;20.00;99.90;;;;;;4991366;28;20053;-65
2021/08/04 12:51:12;;;;;;;4.50;4.10;;;19.90;99.90;;;;;;4977369;28;20045;-64